Time;durP1;ratioP1;P1;durP2;ratioP2;P2;SDS_P1;SDS_P2;PMS_P1;PMS_P2;Temp;Humidity;BMP_temperature;BMP_pressure;BME280_temperature;BME280_humidity;BME280_pressure;Samples;Min_cycle;Max_cycle;Signal;HPM_P1;HPM_P2
2021/10/12 00:01:22;;;;;;;39.50;17.83;;;;;;;;;;5000998;28;20065;-84
2021/10/12 00:03:48;;;;;;;35.35;16.30;;;;;;;;;;4981038;28;20453;-84
2021/10/12 00:06:16;;;;;;;37.15;16.27;;;;;;;;;;4994878;28;20388;-84
2021/10/12 00:08:41;;;;;;;33.13;15.45;;;;;;;;;;4998384;28;20025;-84
2021/10/12 00:11:07;;;;;;;37.17;17.85;;;;;;;;;;4980127;28;20083;-84
2021/10/12 00:13:33;;;;;;;39.55;16.63;;;;;;;;;;4994457;28;20049;-84
2021/10/12 00:16:01;;;;;;;36.95;16.42;;;;;;;;;;4981860;28;20069;-85
2021/10/12 00:18:27;;;;;;;38.28;17.67;;;;;;;;;;4993817;28;20125;-84
2021/10/12 00:20:52;;;;;;;41.05;18.15;;;;;;;;;;4981443;28;20109;-84
2021/10/12 00:23:18;;;;;;;38.03;17.55;;;;;;;;;;4981072;28;20034;-85
2021/10/12 00:25:43;;;;;;;34.80;17.73;;;;;;;;;;4979042;28;20348;-84
2021/10/12 00:28:09;;;;;;;40.75;18.98;;;;;;;;;;4996910;28;20046;-84
2021/10/12 00:30:35;;;;;;;40.60;18.50;;;;;;;;;;4987583;28;20508;-85
2021/10/12 00:33:00;;;;;;;41.75;18.55;;;;;;;;;;4994125;28;20034;-85
2021/10/12 00:35:25;;;;;;;38.92;19.02;;;;;;;;;;4993893;28;20026;-85
2021/10/12 00:37:52;;;;;;;40.88;17.38;;;;;;;;;;5002295;28;20038;-84
2021/10/12 00:40:17;;;;;;;40.97;18.00;;;;;;;;;;4996111;28;20342;-84
2021/10/12 00:42:43;;;;;;;44.45;18.85;;;;;;;;;;4992875;28;20027;-84
2021/10/12 00:45:11;;;;;;;39.40;17.38;;;;;;;;;;4994909;28;20504;-84
2021/10/12 00:47:39;;;;;;;35.28;15.80;;;;;;;;;;4977014;28;20116;-84
2021/10/12 00:50:06;;;;;;;37.53;17.17;;;;;;;;;;4995102;28;20052;-84
2021/10/12 00:52:32;;;;;;;40.60;18.23;;;;;;;;;;4984222;28;20111;-84
2021/10/12 00:54:57;;;;;;;38.85;17.33;;;;;;;;;;4980362;28;20113;-84
2021/10/12 00:57:23;;;;;;;35.83;17.02;;;;;;;;;;4997441;28;20619;-84
2021/10/12 00:59:51;;;;;;;37.35;17.08;;;;;;;;;;4991913;28;20069;-84
2021/10/12 01:02:16;;;;;;;33.20;16.75;;;;;;;;;;4978661;28;20049;-84
2021/10/12 01:04:42;;;;;;;39.42;18.33;;;;;;;;;;4980559;28;20060;-85
2021/10/12 01:07:07;;;;;;;37.17;18.15;;;;;;;;;;4990974;28;20498;-84
2021/10/12 01:09:33;;;;;;;38.92;17.67;;;;;;;;;;4976686;28;20026;-85
2021/10/12 01:11:59;;;;;;;39.65;17.27;;;;;;;;;;4977168;28;20129;-85
2021/10/12 01:14:28;;;;;;;42.50;19.10;;;;;;;;;;4977744;28;20030;-85
2021/10/12 01:16:53;;;;;;;38.45;17.85;;;;;;;;;;4976130;28;20300;-85
2021/10/12 01:19:19;;;;;;;37.85;17.00;;;;;;;;;;4996619;28;20534;-85
2021/10/12 01:21:50;;;;;;;35.85;16.40;;;;;;;;;;4996954;28;20113;-85
2021/10/12 01:24:17;;;;;;;41.92;17.35;;;;;;;;;;4973450;28;20552;-85
2021/10/12 01:26:44;;;;;;;35.72;16.90;;;;;;;;;;4992037;28;20500;-84
2021/10/12 01:29:14;;;;;;;40.75;18.25;;;;;;;;;;4976176;28;20490;-84
2021/10/12 01:31:40;;;;;;;36.88;16.85;;;;;;;;;;4974932;28;20034;-82
2021/10/12 01:34:11;;;;;;;37.13;16.73;;;;;;;;;;4976264;28;20520;-84
2021/10/12 01:36:37;;;;;;;36.30;16.92;;;;;;;;;;4980403;28;20030;-84
2021/10/12 01:39:02;;;;;;;37.75;17.33;;;;;;;;;;4977611;28;20117;-84
2021/10/12 01:41:28;;;;;;;34.47;15.98;;;;;;;;;;4979947;28;20057;-84
2021/10/12 01:43:53;;;;;;;31.48;14.95;;;;;;;;;;4993282;28;20026;-84
2021/10/12 01:46:18;;;;;;;34.58;15.18;;;;;;;;;;4976723;28;20034;-84
2021/10/12 01:48:44;;;;;;;37.80;15.60;;;;;;;;;;4980106;28;20081;-84
2021/10/12 01:51:09;;;;;;;39.67;17.10;;;;;;;;;;4992412;28;20022;-84
2021/10/12 01:53:35;;;;;;;35.05;15.88;;;;;;;;;;4993505;28;20026;-84
2021/10/12 01:56:02;;;;;;;34.90;16.15;;;;;;;;;;4974174;28;20480;-83
2021/10/12 01:58:28;;;;;;;36.15;15.57;;;;;;;;;;4993407;28;20030;-84
2021/10/12 02:00:54;;;;;;;33.05;15.77;;;;;;;;;;4975762;28;20034;-84
2021/10/12 02:03:19;;;;;;;32.72;15.15;;;;;;;;;;4991900;28;20034;-84
2021/10/12 02:05:45;;;;;;;35.42;14.82;;;;;;;;;;4992990;28;20030;-84
2021/10/12 02:08:10;;;;;;;31.35;15.52;;;;;;;;;;4991646;28;20033;-84
2021/10/12 02:10:36;;;;;;;30.67;14.75;;;;;;;;;;4975163;28;20038;-84
2021/10/12 02:13:03;;;;;;;34.88;14.68;;;;;;;;;;4991921;28;20446;-83
2021/10/12 02:15:29;;;;;;;29.02;14.00;;;;;;;;;;4985055;28;20114;-84
2021/10/12 02:17:54;;;;;;;30.80;14.38;;;;;;;;;;4975897;28;20130;-84
2021/10/12 02:20:22;;;;;;;34.15;14.35;;;;;;;;;;4974975;28;20344;-84
2021/10/12 02:22:47;;;;;;;31.50;14.55;;;;;;;;;;4977820;28;20026;-84
2021/10/12 02:25:13;;;;;;;30.45;13.57;;;;;;;;;;4978173;28;20479;-83
2021/10/12 02:27:39;;;;;;;32.40;14.18;;;;;;;;;;4991972;28;20033;-85
2021/10/12 02:30:06;;;;;;;28.88;14.45;;;;;;;;;;4990089;28;20098;-85
2021/10/12 02:32:31;;;;;;;28.58;12.75;;;;;;;;;;4978300;28;20109;-85
2021/10/12 02:34:57;;;;;;;32.50;14.27;;;;;;;;;;4972847;28;20117;-84
2021/10/12 02:37:23;;;;;;;29.58;13.50;;;;;;;;;;4991651;28;20022;-84
2021/10/12 02:39:49;;;;;;;29.48;13.13;;;;;;;;;;4994178;28;20362;-84
2021/10/12 02:42:14;;;;;;;32.20;13.00;;;;;;;;;;4990518;28;20109;-84
2021/10/12 02:44:42;;;;;;;32.17;13.35;;;;;;;;;;4974635;28;20475;-84
2021/10/12 02:47:07;;;;;;;28.08;14.52;;;;;;;;;;4993653;28;20390;-84
2021/10/12 02:49:33;;;;;;;33.45;13.52;;;;;;;;;;4992892;28;20030;-84
2021/10/12 02:51:58;;;;;;;33.28;14.50;;;;;;;;;;4991308;28;20065;-84
2021/10/12 02:54:24;;;;;;;28.40;12.88;;;;;;;;;;4974761;28;20037;-84
2021/10/12 02:56:49;;;;;;;33.75;13.85;;;;;;;;;;4977526;28;20036;-84
2021/10/12 02:59:18;;;;;;;30.92;13.38;;;;;;;;;;4977450;28;20026;-84
2021/10/12 03:01:43;;;;;;;29.42;13.90;;;;;;;;;;4974815;28;20046;-84
2021/10/12 03:04:09;;;;;;;28.55;13.63;;;;;;;;;;4978383;28;20041;-84
2021/10/12 03:06:34;;;;;;;32.38;14.27;;;;;;;;;;4989497;28;20041;-84
2021/10/12 03:09:02;;;;;;;34.85;14.43;;;;;;;;;;4974612;28;20068;-83
2021/10/12 03:11:28;;;;;;;35.72;14.00;;;;;;;;;;4979266;28;20035;-83
2021/10/12 03:13:55;;;;;;;31.30;14.02;;;;;;;;;;4974812;28;20065;-85
2021/10/12 03:16:21;;;;;;;31.65;14.25;;;;;;;;;;4976611;28;20021;-84
2021/10/12 03:18:46;;;;;;;33.38;14.18;;;;;;;;;;4991164;28;20026;-84
2021/10/12 03:21:15;;;;;;;34.33;14.65;;;;;;;;;;4975636;28;20382;-85
2021/10/12 03:23:41;;;;;;;35.80;14.75;;;;;;;;;;4978031;28;20571;-84
2021/10/12 03:26:08;;;;;;;34.08;14.57;;;;;;;;;;4991992;28;20141;-84
2021/10/12 03:28:34;;;;;;;34.58;15.02;;;;;;;;;;4994010;28;20029;-84
2021/10/12 03:30:59;;;;;;;35.05;14.13;;;;;;;;;;4978404;28;20573;-84
2021/10/12 03:33:25;;;;;;;35.67;14.32;;;;;;;;;;4975357;28;20034;-84
2021/10/12 03:35:55;;;;;;;30.23;13.02;;;;;;;;;;4992990;28;20033;-85
2021/10/12 03:38:22;;;;;;;27.50;13.48;;;;;;;;;;4995517;28;20030;-85
2021/10/12 03:40:48;;;;;;;36.40;14.13;;;;;;;;;;4975751;28;20038;-86
2021/10/12 03:43:13;;;;;;;33.03;14.43;;;;;;;;;;5000730;28;20030;-86
2021/10/12 03:45:39;;;;;;;29.50;12.93;;;;;;;;;;4982306;28;20409;-85
2021/10/12 03:48:04;;;;;;;31.00;13.15;;;;;;;;;;4985798;28;20145;-86
2021/10/12 03:50:32;;;;;;;27.15;12.73;;;;;;;;;;4979073;28;20085;-86
2021/10/12 03:53:00;;;;;;;29.98;13.02;;;;;;;;;;4996196;28;20502;-85
2021/10/12 03:55:26;;;;;;;32.55;13.82;;;;;;;;;;4990516;28;20030;-85
2021/10/12 03:57:52;;;;;;;29.08;13.38;;;;;;;;;;4990955;28;20038;-85
2021/10/12 04:00:20;;;;;;;29.73;13.10;;;;;;;;;;4996551;28;20569;-86
2021/10/12 04:02:45;;;;;;;27.60;12.70;;;;;;;;;;4997700;28;20041;-85
2021/10/12 04:05:11;;;;;;;31.65;12.43;;;;;;;;;;4993052;28;20034;-86
2021/10/12 04:07:37;;;;;;;28.88;13.70;;;;;;;;;;5005623;28;20034;-86
2021/10/12 04:10:04;;;;;;;29.42;12.57;;;;;;;;;;4989614;28;20029;-85
2021/10/12 04:12:29;;;;;;;30.67;13.60;;;;;;;;;;4981610;28;20030;-86
2021/10/12 04:14:55;;;;;;;28.92;12.77;;;;;;;;;;4985412;28;20092;-87
2021/10/12 04:17:20;;;;;;;28.90;12.88;;;;;;;;;;5003648;28;20177;-86
2021/10/12 04:19:46;;;;;;;28.52;13.73;;;;;;;;;;4999710;28;20058;-87
2021/10/12 04:22:12;;;;;;;28.58;12.23;;;;;;;;;;5001065;28;20042;-87
2021/10/12 04:24:38;;;;;;;30.20;12.05;;;;;;;;;;4987265;28;20037;-86
2021/10/12 04:27:04;;;;;;;27.42;12.40;;;;;;;;;;4994443;28;20019;-86
2021/10/12 04:29:30;;;;;;;30.23;12.90;;;;;;;;;;4997917;28;20027;-85
2021/10/12 04:31:56;;;;;;;37.72;15.52;;;;;;;;;;4997121;28;20038;-84
2021/10/12 04:34:23;;;;;;;25.63;12.40;;;;;;;;;;4983426;28;20543;-85
2021/10/12 04:36:49;;;;;;;27.02;11.88;;;;;;;;;;4976664;28;20023;-86
2021/10/12 04:39:14;;;;;;;27.02;11.57;;;;;;;;;;4978134;28;20037;-85
2021/10/12 04:41:40;;;;;;;34.92;14.82;;;;;;;;;;4998820;28;20030;-86
2021/10/12 04:44:09;;;;;;;37.00;15.02;;;;;;;;;;4994729;28;20041;-85
2021/10/12 04:46:37;;;;;;;26.58;12.02;;;;;;;;;;4980891;28;20110;-85
2021/10/12 04:49:03;;;;;;;24.63;12.00;;;;;;;;;;4996864;28;20026;-86
2021/10/12 04:51:31;;;;;;;28.98;12.52;;;;;;;;;;4982158;28;20033;-85
2021/10/12 04:53:59;;;;;;;26.25;10.82;;;;;;;;;;4997729;28;20073;-86
2021/10/12 04:56:25;;;;;;;28.70;12.25;;;;;;;;;;4983522;28;20371;-85
2021/10/12 04:58:53;;;;;;;27.70;12.18;;;;;;;;;;4997597;28;20022;-86
2021/10/12 05:01:20;;;;;;;28.55;12.25;;;;;;;;;;4994533;28;20034;-85
2021/10/12 05:03:46;;;;;;;36.88;15.25;;;;;;;;;;4996435;28;20033;-85
2021/10/12 05:06:11;;;;;;;45.08;17.30;;;;;;;;;;4994268;28;20128;-86
2021/10/12 05:08:39;;;;;;;34.33;14.32;;;;;;;;;;4983134;28;20044;-81
2021/10/12 05:11:07;;;;;;;29.58;12.63;;;;;;;;;;4990693;28;20417;-81
2021/10/12 05:13:34;;;;;;;31.40;12.93;;;;;;;;;;4978237;28;20448;-80
2021/10/12 05:16:04;;;;;;;30.88;13.75;;;;;;;;;;4996602;28;20017;-81
2021/10/12 05:18:32;;;;;;;42.10;17.63;;;;;;;;;;4988014;28;20041;-81
2021/10/12 05:20:59;;;;;;;38.22;15.57;;;;;;;;;;4980214;28;20513;-79
2021/10/12 05:23:24;;;;;;;29.73;13.30;;;;;;;;;;5001354;28;20029;-80
2021/10/12 05:25:50;;;;;;;33.17;14.05;;;;;;;;;;4994512;28;20041;-80
2021/10/12 05:28:17;;;;;;;35.78;15.48;;;;;;;;;;4995858;28;20018;-81
2021/10/12 05:30:43;;;;;;;30.08;13.75;;;;;;;;;;4992730;28;20108;-81
2021/10/12 05:33:16;;;;;;;29.92;14.10;;;;;;;;;;4999439;28;20018;-81
2021/10/12 05:35:43;;;;;;;36.28;15.13;;;;;;;;;;4993901;28;20033;-81
2021/10/12 05:38:08;;;;;;;33.58;15.20;;;;;;;;;;4979295;28;20030;-80
2021/10/12 05:40:34;;;;;;;33.00;15.05;;;;;;;;;;5000470;28;20458;-82
2021/10/12 05:42:59;;;;;;;36.40;15.30;;;;;;;;;;4980312;28;20146;-84
2021/10/12 05:45:25;;;;;;;33.88;14.85;;;;;;;;;;4994070;28;20048;-81
2021/10/12 05:47:50;;;;;;;31.58;13.60;;;;;;;;;;5000421;28;20034;-81
2021/10/12 05:50:17;;;;;;;32.85;15.07;;;;;;;;;;4981846;28;20027;-81
2021/10/12 05:52:50;;;;;;;33.10;14.82;;;;;;;;;;4995489;28;20045;-82
2021/10/12 05:55:23;;;;;;;35.08;15.40;;;;;;;;;;4980869;28;20140;-81
2021/10/12 06:00:34;;;;;;;32.13;13.10;;;;;;;;;;4995386;28;20085;-79
2021/10/12 06:02:59;;;;;;;29.30;12.65;;;;;;;;;;4992476;28;20030;-80
2021/10/12 06:05:25;;;;;;;24.08;12.57;;;;;;;;;;4994471;28;20322;-83
2021/10/12 06:07:50;;;;;;;33.10;14.38;;;;;;;;;;4981324;28;20116;-82
2021/10/12 06:10:15;;;;;;;31.27;14.98;;;;;;;;;;4998042;28;20033;-81
2021/10/12 06:12:43;;;;;;;36.63;16.58;;;;;;;;;;4980388;28;20023;-81
2021/10/12 06:15:09;;;;;;;36.67;16.20;;;;;;;;;;4977093;28;20022;-84
2021/10/12 06:17:34;;;;;;;38.33;16.38;;;;;;;;;;4995329;28;20037;-82
2021/10/12 06:20:02;;;;;;;39.97;16.73;;;;;;;;;;4994180;28;20030;-80
2021/10/12 06:22:28;;;;;;;41.40;16.67;;;;;;;;;;4981436;28;20384;-81
2021/10/12 06:24:53;;;;;;;38.15;17.42;;;;;;;;;;4999081;28;20080;-82
2021/10/12 06:27:20;;;;;;;36.95;16.15;;;;;;;;;;4996055;28;20051;-81
2021/10/12 06:29:46;;;;;;;36.33;15.75;;;;;;;;;;4997974;28;20033;-81
2021/10/12 06:32:11;;;;;;;41.10;17.17;;;;;;;;;;4979902;28;20034;-82
2021/10/12 06:34:37;;;;;;;35.17;15.07;;;;;;;;;;4996127;28;20044;-80
2021/10/12 06:37:02;;;;;;;36.78;16.17;;;;;;;;;;4983443;28;20030;-81
2021/10/12 06:39:32;;;;;;;34.70;16.13;;;;;;;;;;4985627;28;20021;-80
2021/10/12 06:42:00;;;;;;;35.78;15.82;;;;;;;;;;4995957;28;20502;-81
2021/10/12 06:44:28;;;;;;;36.13;16.05;;;;;;;;;;4999861;28;20202;-81
2021/10/12 06:46:56;;;;;;;34.70;16.33;;;;;;;;;;4979861;28;20170;-82
2021/10/12 06:49:21;;;;;;;31.25;15.02;;;;;;;;;;4996810;28;20092;-81
2021/10/12 06:51:47;;;;;;;27.17;14.15;;;;;;;;;;4992412;28;20026;-81
2021/10/12 06:54:12;;;;;;;33.65;14.73;;;;;;;;;;4994616;28;20030;-81
2021/10/12 06:56:38;;;;;;;27.67;13.38;;;;;;;;;;4978293;28;20081;-81
2021/10/12 06:59:03;;;;;;;29.27;13.80;;;;;;;;;;4997469;28;20053;-81
2021/10/12 07:01:31;;;;;;;30.65;14.07;;;;;;;;;;4984534;28;20022;-81
2021/10/12 07:03:57;;;;;;;22.55;12.05;;;;;;;;;;5000808;28;20030;-81
2021/10/12 07:06:27;;;;;;;27.35;11.68;;;;;;;;;;4979361;28;20022;-81
2021/10/12 07:08:52;;;;;;;33.03;14.77;;;;;;;;;;4996900;28;20018;-81
2021/10/12 07:11:18;;;;;;;28.80;14.52;;;;;;;;;;4996060;28;20038;-81
2021/10/12 07:13:46;;;;;;;34.40;16.73;;;;;;;;;;4985292;28;20033;-82
2021/10/12 07:16:11;;;;;;;50.08;25.80;;;;;;;;;;5005232;28;20072;-82
2021/10/12 07:18:36;;;;;;;50.22;26.65;;;;;;;;;;5013697;28;20077;-80
2021/10/12 07:21:02;;;;;;;46.95;26.30;;;;;;;;;;4984268;28;20124;-80
2021/10/12 07:23:27;;;;;;;45.60;25.60;;;;;;;;;;4978952;28;20528;-80
2021/10/12 07:25:53;;;;;;;39.50;21.65;;;;;;;;;;4993200;28;20029;-81
2021/10/12 07:28:18;;;;;;;26.08;14.55;;;;;;;;;;4996190;28;20049;-81
2021/10/12 07:30:44;;;;;;;31.92;16.67;;;;;;;;;;4998707;28;20034;-81
2021/10/12 07:33:09;;;;;;;24.75;12.05;;;;;;;;;;5004524;28;20118;-82
2021/10/12 07:35:35;;;;;;;24.23;12.40;;;;;;;;;;4988625;28;20485;-81
2021/10/12 07:38:01;;;;;;;27.05;12.77;;;;;;;;;;4982143;28;20488;-80
2021/10/12 07:40:27;;;;;;;27.58;13.65;;;;;;;;;;4980802;28;20096;-81
2021/10/12 07:42:52;;;;;;;32.90;17.27;;;;;;;;;;4998730;28;20034;-80
2021/10/12 07:45:18;;;;;;;30.77;16.42;;;;;;;;;;4987384;28;20038;-81
2021/10/12 07:47:43;;;;;;;30.13;14.27;;;;;;;;;;4998861;28;20110;-82
2021/10/12 07:50:11;;;;;;;28.50;13.98;;;;;;;;;;4985778;28;20536;-81
2021/10/12 07:52:37;;;;;;;37.70;17.42;;;;;;;;;;4973217;28;20037;-80
2021/10/12 07:57:37;;;;;;;26.02;12.70;;;;;;;;;;4991428;28;20521;-81
2021/10/12 08:00:09;;;;;;;29.10;13.43;;;;;;;;;;5002329;28;20025;-81
2021/10/12 08:02:34;;;;;;;26.00;11.82;;;;;;;;;;4976126;28;20116;-81
2021/10/12 08:05:00;;;;;;;20.95;10.93;;;;;;;;;;4992564;28;20070;-81
2021/10/12 08:07:27;;;;;;;22.63;10.40;;;;;;;;;;4995722;28;20084;-80
2021/10/12 08:09:53;;;;;;;18.75;9.80;;;;;;;;;;4985732;28;20041;-81
2021/10/12 08:12:18;;;;;;;23.63;10.77;;;;;;;;;;4978109;28;20026;-80
2021/10/12 08:14:47;;;;;;;21.50;10.65;;;;;;;;;;4982116;28;20470;-80
2021/10/12 08:17:12;;;;;;;26.95;10.98;;;;;;;;;;4994378;28;20052;-80
2021/10/12 08:19:38;;;;;;;23.13;11.63;;;;;;;;;;4987127;28;20049;-80
2021/10/12 08:22:03;;;;;;;26.60;12.35;;;;;;;;;;4984898;28;20465;-80
2021/10/12 08:24:29;;;;;;;19.80;10.95;;;;;;;;;;4985667;28;20056;-81
2021/10/12 08:26:54;;;;;;;22.95;11.82;;;;;;;;;;4986246;28;20034;-81
2021/10/12 08:29:20;;;;;;;25.33;11.43;;;;;;;;;;4979834;28;20540;-81
2021/10/12 08:31:46;;;;;;;23.70;11.63;;;;;;;;;;5001211;28;20038;-80
2021/10/12 08:34:13;;;;;;;26.23;10.90;;;;;;;;;;5002072;28;20037;-81
2021/10/12 08:36:41;;;;;;;20.77;9.48;;;;;;;;;;4987307;28;20500;-81
2021/10/12 08:39:07;;;;;;;23.08;10.38;;;;;;;;;;5000672;28;20026;-80
2021/10/12 08:41:51;;;;;;;22.60;11.10;;;;;;;;;;4983035;28;20077;-81
2021/10/12 08:44:17;;;;;;;21.60;10.98;;;;;;;;;;4983096;28;20022;-80
2021/10/12 08:46:45;;;;;;;34.92;16.00;;;;;;;;;;4999081;28;20022;-81
2021/10/12 08:49:14;;;;;;;45.42;19.48;;;;;;;;;;4984959;28;20017;-80
2021/10/12 08:51:44;;;;;;;22.60;11.07;;;;;;;;;;4995916;28;20034;-80
2021/10/12 08:54:11;;;;;;;18.45;9.65;;;;;;;;;;4980169;28;20409;-80
2021/10/12 08:56:37;;;;;;;22.13;10.48;;;;;;;;;;5003664;28;20117;-80
2021/10/12 08:59:03;;;;;;;19.40;10.20;;;;;;;;;;4999387;28;20057;-82
2021/10/12 09:01:31;;;;;;;17.05;9.70;;;;;;;;;;4980313;28;20053;-81
2021/10/12 09:06:26;;;;;;;20.95;8.90;;;;;;;;;;4994027;28;20022;-81
2021/10/12 09:08:56;;;;;;;22.75;9.73;;;;;;;;;;4996952;28;20029;-81
2021/10/12 09:11:26;;;;;;;20.55;9.57;;;;;;;;;;4998185;28;20145;-81
2021/10/12 09:13:59;;;;;;;17.52;8.77;;;;;;;;;;4978011;28;20024;-81
2021/10/12 09:16:33;;;;;;;18.90;9.18;;;;;;;;;;4994456;28;20026;-80
2021/10/12 09:19:02;;;;;;;20.67;9.70;;;;;;;;;;4976887;28;20026;-80
2021/10/12 09:21:30;;;;;;;19.67;8.80;;;;;;;;;;4987382;28;20030;-81
2021/10/12 09:24:08;;;;;;;16.00;8.88;;;;;;;;;;4999792;28;20045;-82
2021/10/12 09:26:39;;;;;;;12.13;6.45;;;;;;;;;;4992588;28;20390;-81
2021/10/12 09:29:23;;;;;;;13.80;6.97;;;;;;;;;;4977364;28;20445;-80
2021/10/12 09:31:54;;;;;;;19.98;7.25;;;;;;;;;;4999945;28;20022;-81
2021/10/12 09:34:23;;;;;;;14.45;6.70;;;;;;;;;;4985430;28;20470;-80
2021/10/12 09:36:52;;;;;;;12.73;5.93;;;;;;;;;;5003641;28;20030;-82
2021/10/12 09:39:37;;;;;;;10.93;5.50;;;;;;;;;;4985655;28;20095;-82
2021/10/12 09:42:10;;;;;;;8.45;4.53;;;;;;;;;;4983634;28;20080;-81
2021/10/12 09:44:36;;;;;;;9.98;5.38;;;;;;;;;;4988430;28;20165;-80
2021/10/12 09:47:15;;;;;;;8.82;4.43;;;;;;;;;;4994148;28;20065;-81
2021/10/12 09:49:46;;;;;;;12.50;5.88;;;;;;;;;;4992694;28;20029;-81
2021/10/12 09:52:14;;;;;;;8.48;4.70;;;;;;;;;;4979857;28;20021;-82
2021/10/12 09:54:56;;;;;;;12.32;7.95;;;;;;;;;;4996198;28;20030;-80
2021/10/12 09:57:23;;;;;;;11.38;8.02;;;;;;;;;;5001540;28;20022;-80
2021/10/12 09:59:50;;;;;;;12.00;6.40;;;;;;;;;;4996032;28;20514;-81
2021/10/12 10:02:23;;;;;;;8.25;4.90;;;;;;;;;;4993897;28;20367;-80
2021/10/12 10:04:50;;;;;;;9.60;5.32;;;;;;;;;;4998378;28;20390;-81
2021/10/12 10:07:41;;;;;;;9.32;4.78;;;;;;;;;;4991839;28;20103;-81
2021/10/12 10:10:08;;;;;;;7.57;4.07;;;;;;;;;;4975261;28;20505;-80
2021/10/12 10:12:34;;;;;;;8.60;5.07;;;;;;;;;;4975218;28;20026;-81
2021/10/12 10:15:00;;;;;;;10.63;6.50;;;;;;;;;;4992178;28;20054;-80
2021/10/12 10:17:28;;;;;;;7.75;5.07;;;;;;;;;;4994714;28;20061;-81
2021/10/12 10:19:55;;;;;;;9.57;5.43;;;;;;;;;;4977958;28;20030;-81
2021/10/12 10:22:47;;;;;;;9.45;5.30;;;;;;;;;;4995496;28;20486;-81
2021/10/12 10:25:32;;;;;;;7.25;4.72;;;;;;;;;;4997044;28;20031;-80
2021/10/12 10:28:16;;;;;;;11.35;5.93;;;;;;;;;;4999937;28;20022;-80
2021/10/12 10:30:47;;;;;;;11.32;5.72;;;;;;;;;;4991519;28;20036;-80
2021/10/12 10:33:27;;;;;;;14.88;6.70;;;;;;;;;;4995096;28;20088;-81
2021/10/12 10:35:58;;;;;;;13.35;5.90;;;;;;;;;;5001958;28;20085;-81
2021/10/12 10:38:25;;;;;;;11.02;6.45;;;;;;;;;;5000093;28;20042;-81
2021/10/12 10:41:11;;;;;;;13.38;6.03;;;;;;;;;;4989997;28;20044;-81
2021/10/12 10:43:51;;;;;;;12.70;5.80;;;;;;;;;;4974554;28;20433;-80
2021/10/12 10:46:32;;;;;;;13.18;6.00;;;;;;;;;;4976192;28;20037;-80
2021/10/12 10:49:13;;;;;;;14.82;6.50;;;;;;;;;;4977105;28;20033;-80
2021/10/12 10:52:05;;;;;;;12.60;7.05;;;;;;;;;;4991770;28;20125;-79
2021/10/12 10:54:37;;;;;;;14.70;7.68;;;;;;;;;;4989523;28;20041;-81
2021/10/12 10:57:19;;;;;;;12.38;7.10;;;;;;;;;;4994652;28;20434;-80
2021/10/12 11:00:11;;;;;;;14.90;6.63;;;;;;;;;;4990200;28;20415;-80
2021/10/12 11:02:48;;;;;;;11.43;5.55;;;;;;;;;;4989795;28;20080;-81
2021/10/12 11:05:39;;;;;;;14.05;6.15;;;;;;;;;;4975454;28;20545;-79
2021/10/12 11:08:08;;;;;;;16.45;6.50;;;;;;;;;;4992552;28;20030;-80
2021/10/12 11:10:34;;;;;;;16.23;7.30;;;;;;;;;;4995029;28;20421;-80
2021/10/12 11:12:59;;;;;;;16.13;7.05;;;;;;;;;;4994209;28;20038;-80
2021/10/12 11:15:25;;;;;;;18.73;7.53;;;;;;;;;;4991129;28;20077;-80
2021/10/12 11:18:11;;;;;;;15.32;7.72;;;;;;;;;;4993062;28;20038;-82
2021/10/12 11:20:46;;;;;;;16.27;8.48;;;;;;;;;;4976025;28;20088;-83
2021/10/12 11:23:12;;;;;;;14.32;7.95;;;;;;;;;;4973411;28;20045;-80
2021/10/12 11:25:40;;;;;;;20.25;9.70;;;;;;;;;;4995003;28;20057;-79
2021/10/12 11:28:12;;;;;;;17.90;8.93;;;;;;;;;;4990685;28;20355;-80
2021/10/12 11:30:40;;;;;;;18.83;9.38;;;;;;;;;;4989239;28;20033;-80
2021/10/12 11:33:06;;;;;;;18.67;8.82;;;;;;;;;;5000446;28;20438;-79
2021/10/12 11:35:33;;;;;;;22.05;9.68;;;;;;;;;;4992931;28;20019;-80
2021/10/12 11:37:59;;;;;;;19.38;9.88;;;;;;;;;;4989676;28;20026;-81
2021/10/12 11:40:26;;;;;;;20.17;8.98;;;;;;;;;;4991347;28;20026;-84
2021/10/12 11:42:52;;;;;;;21.83;11.57;;;;;;;;;;4979769;28;20302;-80
2021/10/12 11:45:18;;;;;;;20.45;11.32;;;;;;;;;;4974685;28;20034;-81
2021/10/12 11:47:46;;;;;;;20.30;10.52;;;;;;;;;;4987635;28;20494;-81
2021/10/12 11:50:14;;;;;;;19.65;10.38;;;;;;;;;;4992197;28;20031;-82
2021/10/12 11:52:41;;;;;;;22.67;10.43;;;;;;;;;;4993798;28;20133;-80
2021/10/12 11:55:11;;;;;;;19.00;9.45;;;;;;;;;;4977662;28;20486;-83
2021/10/12 11:57:38;;;;;;;19.35;9.68;;;;;;;;;;4983598;28;20030;-81
2021/10/12 12:00:07;;;;;;;15.30;8.82;;;;;;;;;;4995312;28;20026;-82
2021/10/12 12:02:35;;;;;;;13.82;7.55;;;;;;;;;;4991508;28;20030;-82
2021/10/12 12:05:01;;;;;;;16.50;6.78;;;;;;;;;;4979380;28;20049;-79
2021/10/12 12:07:30;;;;;;;13.93;6.75;;;;;;;;;;4996141;28;20209;-80
2021/10/12 12:09:59;;;;;;;12.48;6.75;;;;;;;;;;4995349;28;20543;-80
2021/10/12 12:12:24;;;;;;;16.65;7.47;;;;;;;;;;4992350;28;20441;-82
2021/10/12 12:14:51;;;;;;;13.30;6.53;;;;;;;;;;4990745;28;20451;-81
2021/10/12 12:17:24;;;;;;;12.27;6.18;;;;;;;;;;4982821;28;20026;-83
2021/10/12 12:19:55;;;;;;;15.63;6.53;;;;;;;;;;4992682;28;20026;-81
2021/10/12 12:22:23;;;;;;;13.77;7.05;;;;;;;;;;4979355;28;20026;-82
2021/10/12 12:24:56;;;;;;;16.58;7.80;;;;;;;;;;4997012;28;20034;-81
2021/10/12 12:27:21;;;;;;;15.38;7.47;;;;;;;;;;4976832;28;20037;-81
2021/10/12 12:29:59;;;;;;;14.95;6.80;;;;;;;;;;4996642;28;20042;-80
2021/10/12 12:32:25;;;;;;;22.15;8.23;;;;;;;;;;4979878;28;20114;-81
2021/10/12 12:35:17;;;;;;;22.48;10.10;;;;;;;;;;4983234;28;20320;-82
2021/10/12 12:37:42;;;;;;;16.17;7.80;;;;;;;;;;4992411;28;20386;-82
2021/10/12 12:40:31;;;;;;;18.02;8.48;;;;;;;;;;4995133;28;20026;-81
2021/10/12 12:42:57;;;;;;;19.95;7.82;;;;;;;;;;4996887;28;20037;-81
2021/10/12 12:45:24;;;;;;;16.70;7.90;;;;;;;;;;4976829;28;20065;-81
2021/10/12 12:47:59;;;;;;;13.35;6.95;;;;;;;;;;4991638;28;20362;-81
2021/10/12 12:50:31;;;;;;;11.15;6.10;;;;;;;;;;4996487;28;20031;-81
2021/10/12 12:53:00;;;;;;;14.40;7.00;;;;;;;;;;4994435;28;20049;-81
2021/10/12 12:55:40;;;;;;;14.43;7.45;;;;;;;;;;4992154;28;20026;-81
2021/10/12 12:58:06;;;;;;;14.27;6.78;;;;;;;;;;4974928;28;20034;-81
2021/10/12 13:00:37;;;;;;;11.88;7.28;;;;;;;;;;4993681;28;20073;-79
2021/10/12 13:03:03;;;;;;;12.18;6.95;;;;;;;;;;4991507;28;20045;-82
2021/10/12 13:05:33;;;;;;;15.00;7.63;;;;;;;;;;4985361;28;20061;-82
2021/10/12 13:08:00;;;;;;;15.88;8.43;;;;;;;;;;4993361;28;20026;-81
2021/10/12 13:10:27;;;;;;;16.15;7.03;;;;;;;;;;4979621;28;20044;-80
2021/10/12 13:12:53;;;;;;;10.05;5.90;;;;;;;;;;4977302;28;20489;-82
2021/10/12 13:15:21;;;;;;;11.32;6.40;;;;;;;;;;4979463;28;20030;-81
2021/10/12 13:17:47;;;;;;;15.38;6.90;;;;;;;;;;4974639;28;20026;-81
2021/10/12 13:20:13;;;;;;;11.85;6.28;;;;;;;;;;4988454;28;20030;-82
2021/10/12 13:22:40;;;;;;;15.23;6.65;;;;;;;;;;4993820;28;20481;-79
2021/10/12 13:25:08;;;;;;;13.13;6.85;;;;;;;;;;4982653;28;20041;-81
2021/10/12 13:27:34;;;;;;;15.05;6.90;;;;;;;;;;4996889;28;20066;-82
2021/10/12 13:29:59;;;;;;;17.90;7.60;;;;;;;;;;4979311;28;20054;-80
2021/10/12 13:32:24;;;;;;;17.90;8.27;;;;;;;;;;4999860;28;20388;-81
2021/10/12 13:34:52;;;;;;;12.40;7.10;;;;;;;;;;4998275;28;20483;-80
2021/10/12 13:37:20;;;;;;;14.23;7.70;;;;;;;;;;4995220;28;20045;-81
2021/10/12 13:39:46;;;;;;;13.40;7.63;;;;;;;;;;4992524;28;20034;-81
2021/10/12 13:42:11;;;;;;;15.77;7.53;;;;;;;;;;4993251;28;20038;-80
2021/10/12 13:44:39;;;;;;;16.13;7.45;;;;;;;;;;4994555;28;20030;-80
2021/10/12 13:47:08;;;;;;;16.10;7.40;;;;;;;;;;4989738;28;20498;-80
2021/10/12 13:49:34;;;;;;;16.70;8.17;;;;;;;;;;4996300;28;20450;-81
2021/10/12 13:51:59;;;;;;;15.50;8.13;;;;;;;;;;4977176;28;20033;-81
2021/10/12 13:54:25;;;;;;;13.60;7.53;;;;;;;;;;4993225;28;20033;-81
2021/10/12 13:56:53;;;;;;;15.20;7.90;;;;;;;;;;4995018;28;20026;-82
2021/10/12 13:59:19;;;;;;;15.52;7.82;;;;;;;;;;4981354;28;20056;-80
2021/10/12 14:01:49;;;;;;;16.35;8.20;;;;;;;;;;4995297;28;20129;-82
2021/10/12 14:04:20;;;;;;;16.70;7.50;;;;;;;;;;4990151;28;20034;-82
2021/10/12 14:06:46;;;;;;;12.43;7.63;;;;;;;;;;4984665;28;20025;-82
2021/10/12 14:09:12;;;;;;;16.15;8.02;;;;;;;;;;4994826;28;20110;-82
2021/10/12 14:11:38;;;;;;;25.23;9.20;;;;;;;;;;4977437;28;20033;-83
2021/10/12 14:14:07;;;;;;;16.30;8.55;;;;;;;;;;4974364;28;20022;-81
2021/10/12 14:16:33;;;;;;;20.15;10.13;;;;;;;;;;4995570;28;20390;-81
2021/10/12 14:18:58;;;;;;;14.52;8.60;;;;;;;;;;4989843;28;20030;-79
2021/10/12 14:21:24;;;;;;;14.30;8.20;;;;;;;;;;4997015;28;20057;-80
2021/10/12 14:23:52;;;;;;;18.23;8.23;;;;;;;;;;4982684;28;20037;-79
2021/10/12 14:26:18;;;;;;;24.00;8.75;;;;;;;;;;4975605;28;20176;-80
2021/10/12 14:28:44;;;;;;;13.30;7.35;;;;;;;;;;4990751;28;20110;-80
2021/10/12 14:31:10;;;;;;;19.40;8.70;;;;;;;;;;4990024;28;20014;-81
2021/10/12 14:33:36;;;;;;;20.10;8.32;;;;;;;;;;4994725;28;20038;-79